Flight Track Log - Related Links

Times and Time Zones

All times are in EDT time to prevent confusion due to time zone crossing. See the RPA3468 flight status page for this flight to view local times or setup timezone preferences in your user account.

Time Position Orientation Groundspeed Altitude Reporting Facility
EDT Latitude Longitude Course Direction KTS MPH feet Rate Location/Type
Sun 07:42:47 PM 38.8667 -77.0500 83° East 154 177 1,100  Level Potomac TRACON
Sun 07:44:54 PM 38.9575 -77.1533 319° Northwest 207 238 6,000 2,856 Climbing Washington Center
Sun 07:45:00 PM 39.0204 -76.5556 67° East  Level FlightAware Approximate
Sun 07:45:54 PM 39.0156 -77.1731 345° North 222 255 10,000  Level Washington Center
Sun 07:46:00 PM 39.0662 -76.4346 63° Northeast  Level FlightAware Approximate
Sun 07:46:55 PM 39.0417 -77.0856 69° East 154 177 12,600  Level Washington Center
Sun 07:47:00 PM 39.1167 -76.3166 90° East  Level FlightAware Approximate
Sun 07:47:56 PM 39.0556 -76.9789 80° East 225 259 14,000  Level Washington Center
Sun 07:48:00 PM 39.1518 -76.1988 83° East  Level FlightAware Approximate
Sun 07:48:56 PM 39.0694 -76.8536 82° East 294 338 16,400  Level Washington Center
Sun 07:49:54 PM 39.0872 -76.7256 80° East 326 375 18,400 2,000 Climbing Washington Center
Sun 07:50:56 PM 39.1031 -76.5867 82° East 364 419 20,400 1,967 Climbing Washington Center
Sun 07:51:56 PM 39.1208 -76.4478 81° East 387 445 22,400 1,322 Climbing Washington Center
Sun 07:52:54 PM 39.1383 -76.3008 81° East 401 461 23,000 303 Climbing Washington Center
Sun 07:53:55 PM 39.1622 -76.1564 78° East 411 473 23,000  Level Washington Center
Sun 07:54:56 PM 39.1772 -76.0119 82° East 411 473 23,000 706 Level Washington Center
Sun 07:55:54 PM 39.2047 -75.8675 76° East 411 473 24,400 1,513 Climbing Washington Center
Sun 07:56:55 PM 39.2800 -75.7658 46° Northeast 379 436 26,000 1,550 Climbing Washington Center
Sun 07:57:54 PM 39.3594 -75.6639 45° Northeast 379 436 27,500 1,361 Climbing Washington Center
Sun 07:58:54 PM 39.4386 -75.5647 44° Northeast 385 443 28,700 1,279 Climbing Washington Center
Sun 07:59:56 PM 39.5217 -75.4569 45° Northeast 402 463 30,100 1,230 Climbing Washington Center
Sun 08:00:56 PM 39.6008 -75.3519 46° Northeast 407 468 31,200 1,119 Climbing Washington Center
Sun 08:01:54 PM 39.6817 -75.2436 46° Northeast 407 468 32,300 908 Climbing Washington Center
Sun 08:02:55 PM 39.7667 -75.1164 49° Northeast 413 475 33,000 344 Climbing Washington Center
Sun 08:03:56 PM 39.8456 -75.0050 47° Northeast 418 481 33,000  Level Washington Center
Sun 08:06:05 PM 40.0100 -74.7764 47° Northeast 421 484 33,000  Level New York Center
Sun 08:07:05 PM 40.0889 -74.6617 48° Northeast 421 484 33,000  Level New York Center
Sun 08:08:05 PM 40.1697 -74.5494 47° Northeast 421 484 33,000  Level New York Center
Sun 08:09:05 PM 40.2650 -74.4347 43° Northeast 421 484 33,000  Level New York Center
Sun 08:10:05 PM 40.3706 -74.3969 15° North 406 467 33,000  Level New York Center
Sun 08:12:24 PM 40.6133 -74.3236 13° North 388 447 33,000  Level Boston Center
Sun 08:13:24 PM 40.7242 -74.2914 12° North 394 453 33,000  Level Boston Center
Sun 08:14:24 PM 40.8372 -74.2644 10° North 399 459 33,000  Level Boston Center
Sun 08:15:24 PM 40.9461 -74.2344 12° North 399 459 33,000  Level Boston Center
Sun 08:16:24 PM 41.0569 -74.2017 13° North 394 453 33,000  Level Boston Center
Sun 08:17:24 PM 41.1764 -74.1664 13° North 394 453 33,000  Level Boston Center
Sun 08:18:24 PM 41.2853 -74.1306 14° North 394 453 33,000  Level Boston Center
Sun 08:19:24 PM 41.3942 -74.1003 12° North 394 453 33,000  Level Boston Center
Sun 08:20:24 PM 41.5050 -74.0672 13° North 394 453 33,000  Level Boston Center
Sun 08:21:24 PM 41.6181 -74.0339 12° North 394 453 33,000  Level Boston Center
Sun 08:22:24 PM 41.7269 -74.0033 12° North 399 459 33,000  Level Boston Center
Sun 08:23:24 PM 41.8253 -73.9750 12° North 393 452 33,000  Level Boston Center
Sun 08:24:24 PM 41.9361 -73.9444 12° North 393 452 33,000  Level Boston Center
Sun 08:25:24 PM 42.0469 -73.9106 13° North 398 458 33,000  Level Boston Center
Sun 08:26:24 PM 42.1578 -73.8767 13° North 398 458 33,000  Level Boston Center
Sun 08:27:24 PM 42.2706 -73.8597 North 403 464 33,000  Level Boston Center
Sun 08:28:24 PM 42.3811 -73.8539 North 403 464 33,000  Level Boston Center
Sun 08:29:24 PM 42.4936 -73.8536 360° North 403 464 33,000  Level Boston Center
Sun 08:30:24 PM 42.6147 -73.8478 North 403 464 33,000  Level Boston Center
Sun 08:31:24 PM 42.7272 -73.8392 North 398 458 33,000  Level Boston Center
Sun 08:32:24 PM 42.8378 -73.8389 360° North 398 458 33,000  Level Boston Center
Sun 08:33:24 PM 42.9461 -73.8356 North 398 458 33,000  Level Boston Center
Sun 08:34:24 PM 43.0547 -73.8294 North 398 458 33,000 -200 Level Boston Center
Sun 08:35:24 PM 43.1636 -73.7922 14° North 393 452 32,600 -750 Descending Boston Center
Sun 08:36:24 PM 43.2706 -73.7375 20° North 393 452 31,500 -1,200 Descending Boston Center
Sun 08:37:24 PM 43.3772 -73.6942 16° North 398 458 30,200 -1,450 Descending Boston Center
Sun 08:38:24 PM 43.4856 -73.6992 358° North 383 441 28,600 -1,600 Descending Boston Center
Sun 08:39:24 PM 43.5875 -73.7069 357° North 383 441 27,000 -1,600 Descending Boston Center
Sun 08:40:24 PM 43.6858 -73.6661 17° North 371 427 25,400 -1,600 Descending Boston Center
Sun 08:41:24 PM 43.7783 -73.6075 25° Northeast 359 413 23,800 -1,600 Descending Boston Center
Sun 08:42:24 PM 43.8664 -73.5486 26° Northeast 359 413 22,200 -1,400 Descending Boston Center
Sun 08:43:24 PM 43.9356 -73.5039 25° Northeast 349 402 21,000 -1,500 Descending Boston Center
Sun 08:44:24 PM 44.0361 -73.4392 25° Northeast 336 387 19,200 -1,850 Descending Boston Center
Sun 08:45:24 PM 44.1200 -73.3858 25° Northeast 331 381 17,300 -2,050 Descending Boston Center
Sun 08:46:24 PM 44.1869 -73.3406 26° Northeast 310 357 15,100 -1,900 Descending Boston Center
Sun 08:47:24 PM 44.2539 -73.3156 15° North 292 336 13,500 -2,450 Descending Boston Center
Sun 08:48:24 PM 44.3264 -73.3483 342° North 249 287 10,200 -2,450 Descending Boston Center
Sun 08:49:24 PM 44.3867 -73.3667 348° North 229 264 8,600 -1,800 Descending Boston Center
Sun 08:50:24 PM 44.4367 -73.3819 348° North 189 217 6,600 -2,200 Descending Boston Center
Sun 08:51:24 PM 44.4867 -73.3944 350° North 182 209 4,200 -2,200 Descending Boston Center
Sun 08:52:24 PM 44.5389 -73.3692 19° North 182 209 2,200 -2,000 Descending Boston Center

Login

Don't have an account? Register now (free) for customized features, flight alerts, and more!